Briefing drone pour La voulte-sur-rhone

Rechercher une autre localisation

Conditions de vol :


Nous sommes le : Mercredi 23 septembre 2020
Il est 06:11 UTC (08:11 LT)

Lever de soleil : 05:03 UTC (07:03 LT)
Coucher de soleil : 18:03 UTC (20:03 LT)

Météo

L'essentiel des conditions de vol

VIGILANCE MÉTÉO FRANCE - Ardèche (07)
Pas de vigilances particulieres
CARTE TEMSI
CARTES DES FRONTS
METAR de LFLU
LFLU 230600Z AUTO VRB02KT CAVOK 16/15 Q1011

Date d'émission: 23/09/2020
Heure d'émission: 06:00 UTC
Vent: Variable 2 KT (4 km/h)
Visibilité horizontale: > 10 km
Plafond : Plafond et visibilité OK (CAVOK)
Température: 16 °C
Point de rosée: 15 °C
Humidité: 94%
Pression (QNH): 1011 hPa
Prévision 24h pour Valence (11 km)
Vent : 166° pour 3 KT (10 km/h)
Temperature Maxi: 16 °C
Temperature Min: 16 °C
Humidité : 86%
Condition : Légère pluie



Warning: count(): Parameter must be an array or an object that implements Countable in /homepages/6/d509196549/htdocs/droneoxygene/briefing.php on line 743
WEBCAM POUR LA VOULTE-SUR-RHONE

Réglementation

Voler en sécurité

CARTES AERONAUTIQUE 1/500.000
CARTES VAC (LFLU)
SUP AIP




Chargement des AIP...
NOTAM (LA VOULTE-SUR-RHONE + Terrain à proximité / FIR )




Chargement des NOTAMS...
CONTACT PREFECTURE 07


Avertissement : Les données mises à disposition sont indicatives. Oxygène Drone ne pourra être tenu responsable de dégâts causés aux biens et aux personnes.